createdAt,value
2022-12-28T00:04:26.933Z,101673.69
2022-12-28T00:09:37.661Z,101656.09
2022-12-28T00:14:48.099Z,101652.28
2022-12-28T00:19:59.283Z,101649.16
2022-12-28T00:25:10.247Z,101646.78
2022-12-28T00:30:20.675Z,101639.56
2022-12-28T00:35:30.959Z,101637.69
2022-12-28T00:40:42.003Z,101620.41
2022-12-28T00:45:53.185Z,101619.41
2022-12-28T00:51:28.667Z,101620.00
2022-12-28T00:56:39.805Z,101609.03
2022-12-28T01:01:51.699Z,101603.06
2022-12-28T01:07:02.555Z,101604.50
2022-12-28T01:12:19.565Z,101587.91
2022-12-28T01:17:30.764Z,101582.50
2022-12-28T01:22:42.147Z,101585.94
2022-12-28T01:27:53.048Z,101586.28
2022-12-28T01:33:06.262Z,101570.41
2022-12-28T01:38:18.437Z,101561.41
2022-12-28T01:43:51.211Z,101570.09
2022-12-28T01:49:05.712Z,101567.75
2022-12-28T01:54:16.634Z,101560.41
2022-12-28T01:59:31.442Z,101552.47
2022-12-28T02:04:42.454Z,101557.81
2022-12-28T02:10:42.683Z,101546.75
2022-12-28T02:15:30.443Z,101548.72
2022-12-28T02:21:28.420Z,101539.94
2022-12-28T02:27:03.225Z,101522.88
2022-12-28T02:32:26.124Z,101526.19
2022-12-28T02:37:56.966Z,101519.19
2022-12-28T02:43:08.339Z,101507.41
2022-12-28T02:48:36.416Z,101505.75
2022-12-28T02:54:10.080Z,101495.50
2022-12-28T03:00:11.643Z,101495.50
2022-12-28T03:06:11.400Z,101489.56
2022-12-28T03:11:46.584Z,101492.44
2022-12-28T03:17:16.890Z,101480.47
2022-12-28T03:22:47.822Z,101476.41
2022-12-28T03:28:24.807Z,101471.16
2022-12-28T03:33:36.261Z,101456.81
2022-12-28T03:38:55.452Z,101453.69
2022-12-28T03:44:19.201Z,101441.00
2022-12-28T03:49:32.716Z,101435.13
2022-12-28T03:54:44.058Z,101435.94
2022-12-28T04:00:02.092Z,101429.06
2022-12-28T04:05:13.703Z,101435.72
2022-12-28T04:10:25.363Z,101413.47
2022-12-28T04:15:36.517Z,101410.34
2022-12-28T04:20:48.137Z,101408.91
2022-12-28T04:26:29.214Z,101398.19
2022-12-28T04:31:40.353Z,101391.38
2022-12-28T04:36:59.326Z,101395.09
2022-12-28T04:42:11.825Z,101379.59
2022-12-28T04:47:23.908Z,101387.44
2022-12-28T04:52:28.146Z,101392.06
2022-12-28T04:57:32.267Z,101385.16
2022-12-28T05:02:36.430Z,101377.41
2022-12-28T05:07:41.425Z,101383.19
2022-12-28T05:12:48.955Z,101356.06
2022-12-28T05:17:55.916Z,101363.91
2022-12-28T05:23:00.157Z,101360.63
2022-12-28T05:28:04.802Z,101359.91
2022-12-28T05:33:09.011Z,101335.53
2022-12-28T05:38:14.585Z,101341.75
2022-12-28T05:43:19.407Z,101339.25
2022-12-28T05:48:23.578Z,101354.94
2022-12-28T05:53:28.883Z,101352.69
2022-12-28T05:58:33.861Z,101350.28
2022-12-28T06:03:39.025Z,101345.13
2022-12-28T06:08:44.570Z,101339.88
2022-12-28T06:13:49.366Z,101334.41
2022-12-28T06:18:53.778Z,101331.63
2022-12-28T06:24:00.130Z,101301.31
2022-12-28T06:29:05.062Z,101326.47
2022-12-28T06:34:10.154Z,101322.09
2022-12-28T06:39:15.901Z,101317.91
2022-12-28T06:44:20.224Z,101322.84
2022-12-28T06:49:24.483Z,101266.41
2022-12-28T06:54:28.828Z,101312.59
2022-12-28T06:59:32.955Z,101308.06
2022-12-28T07:04:37.478Z,101312.38
2022-12-28T07:09:41.650Z,101302.47
2022-12-28T07:14:47.700Z,101283.16
2022-12-28T07:19:52.034Z,101299.41
2022-12-28T07:24:57.466Z,101271.75
2022-12-28T07:30:01.867Z,101275.81
2022-12-28T07:35:08.025Z,101270.50
2022-12-28T07:40:12.619Z,101267.16
2022-12-28T07:45:16.904Z,101259.81
2022-12-28T07:50:21.047Z,101248.44
2022-12-28T07:55:25.503Z,101221.09
2022-12-28T08:00:30.381Z,101238.13
2022-12-28T08:05:34.755Z,101218.44
2022-12-28T08:10:38.922Z,101207.91
2022-12-28T08:15:43.066Z,101194.00
2022-12-28T08:20:47.322Z,101181.84
2022-12-28T08:25:51.443Z,101182.34
2022-12-28T08:30:55.789Z,101176.53
2022-12-28T08:36:00.055Z,101183.72
2022-12-28T08:41:08.597Z,101170.25
2022-12-28T08:46:17.224Z,101155.81
2022-12-28T08:51:24.697Z,101144.09
2022-12-28T08:56:31.861Z,101137.97
2022-12-28T09:01:44.337Z,101131.84
2022-12-28T09:06:50.392Z,101122.56
2022-12-28T09:11:54.724Z,101119.09
2022-12-28T09:16:59.068Z,101116.75
2022-12-28T09:22:03.265Z,101125.91
2022-12-28T09:27:07.421Z,101122.03
2022-12-28T09:32:13.218Z,101124.06
2022-12-28T09:37:17.396Z,101113.25
2022-12-28T09:42:31.045Z,101104.69
2022-12-28T09:47:46.465Z,101101.16
2022-12-28T09:53:31.179Z,101093.66
2022-12-28T09:58:38.400Z,101075.94
2022-12-28T10:03:44.375Z,101062.88
2022-12-28T10:08:54.639Z,101075.31
2022-12-28T10:14:01.826Z,101061.13
2022-12-28T10:19:09.319Z,101062.97
2022-12-28T10:24:31.480Z,101047.38
2022-12-28T10:29:36.253Z,101035.16
2022-12-28T10:34:59.193Z,101041.94
2022-12-28T10:40:26.784Z,101045.69
2022-12-28T10:45:40.726Z,101041.44
2022-12-28T10:50:56.179Z,101013.22
2022-12-28T10:56:17.425Z,101025.91
2022-12-28T11:01:28.194Z,101017.00
2022-12-28T11:06:32.501Z,101024.31
2022-12-28T11:11:36.563Z,101002.16
2022-12-28T11:16:42.348Z,101005.22
2022-12-28T11:21:46.995Z,100996.31
2022-12-28T11:26:51.626Z,101003.81
2022-12-28T11:32:07.013Z,101006.44
2022-12-28T11:37:17.367Z,100996.50
2022-12-28T11:42:41.453Z,100995.41
2022-12-28T11:47:46.424Z,100984.28
2022-12-28T11:52:51.835Z,100981.81
2022-12-28T11:57:55.908Z,100979.13
2022-12-28T12:03:02.546Z,100954.81
2022-12-28T12:08:13.005Z,100961.84
2022-12-28T12:13:26.544Z,100959.28
2022-12-28T12:18:46.649Z,100960.41
2022-12-28T12:23:57.375Z,100961.19
2022-12-28T12:29:05.582Z,100948.59
2022-12-28T12:34:27.189Z,100951.50
2022-12-28T12:39:55.480Z,100957.94
2022-12-28T12:45:14.116Z,100927.06
2022-12-28T12:50:44.672Z,100943.03
2022-12-28T12:56:05.192Z,100929.38
2022-12-28T13:01:41.972Z,100928.09
2022-12-28T13:06:46.201Z,100934.09
2022-12-28T13:11:53.324Z,100935.72
2022-12-28T13:17:00.011Z,100925.88
2022-12-28T13:22:04.711Z,100917.06
2022-12-28T13:27:21.165Z,100917.88
2022-12-28T13:32:38.644Z,100909.69
2022-12-28T13:37:43.024Z,100902.03
2022-12-28T13:43:16.847Z,100893.75
2022-12-28T13:48:24.435Z,100899.78
2022-12-28T13:53:32.278Z,100891.94
2022-12-28T13:58:50.437Z,100889.66
2022-12-28T14:04:50.550Z,100893.66
2022-12-28T14:09:47.408Z,100891.38
2022-12-28T14:14:58.857Z,100883.88
2022-12-28T14:20:10.897Z,100886.16
2022-12-28T14:25:29.263Z,100881.25
2022-12-28T14:30:49.238Z,100877.06
2022-12-28T14:36:07.535Z,100873.66
2022-12-28T14:41:40.393Z,100881.84
2022-12-28T14:46:57.040Z,100877.50
2022-12-28T14:52:18.259Z,100868.66
2022-12-28T14:58:09.033Z,100870.50
2022-12-28T15:03:27.434Z,100860.91
2022-12-28T15:08:38.495Z,100857.09
2022-12-28T15:13:49.174Z,100840.47
2022-12-28T15:18:59.723Z,100817.25
2022-12-28T15:24:10.857Z,100853.44
2022-12-28T15:29:39.618Z,100832.28
2022-12-28T15:34:57.292Z,100821.66
2022-12-28T15:40:08.138Z,100818.94
2022-12-28T15:45:19.460Z,100821.22
2022-12-28T15:50:30.631Z,100804.44
2022-12-28T15:55:40.415Z,100808.50
2022-12-28T16:00:51.883Z,100800.97
2022-12-28T16:06:05.780Z,100809.16
2022-12-28T16:11:21.565Z,100801.19
2022-12-28T16:16:34.590Z,100798.28
2022-12-28T16:21:45.270Z,100791.59
2022-12-28T16:26:56.382Z,100781.84
2022-12-28T16:32:06.769Z,100793.41
2022-12-28T16:37:18.854Z,100778.56
2022-12-28T16:42:29.409Z,100791.88
2022-12-28T16:47:44.644Z,100783.81
2022-12-28T16:53:07.677Z,100781.41
2022-12-28T16:58:18.444Z,100780.47
2022-12-28T17:03:29.166Z,100770.63
2022-12-28T17:08:43.291Z,100770.34
2022-12-28T17:13:53.754Z,100782.69
2022-12-28T17:19:04.832Z,100775.09
2022-12-28T17:24:15.022Z,100780.00
2022-12-28T17:29:25.931Z,100771.41
2022-12-28T17:34:36.868Z,100770.50
2022-12-28T17:39:47.347Z,100760.25
2022-12-28T17:44:57.950Z,100768.69
2022-12-28T17:50:08.199Z,100756.63
2022-12-28T17:55:18.924Z,100751.06
2022-12-28T18:00:29.661Z,100750.47
2022-12-28T18:05:40.195Z,100765.34
2022-12-28T18:10:51.414Z,100765.22
2022-12-28T18:16:01.897Z,100761.94
2022-12-28T18:21:21.808Z,100755.78
2022-12-28T18:26:38.423Z,100752.34
2022-12-28T18:31:50.189Z,100746.13
2022-12-28T18:37:00.695Z,100738.72
2022-12-28T18:42:11.339Z,100739.78
2022-12-28T18:47:21.729Z,100744.63
2022-12-28T18:52:33.802Z,100735.41
2022-12-28T18:57:44.025Z,100748.63
2022-12-28T19:02:56.905Z,100748.88
2022-12-28T19:08:07.595Z,100755.28
2022-12-28T19:13:18.724Z,100759.59
2022-12-28T19:18:29.217Z,100762.09
2022-12-28T19:23:40.512Z,100749.63
2022-12-28T19:28:50.823Z,100760.84
2022-12-28T19:34:00.946Z,100759.53
2022-12-28T19:39:11.145Z,100767.00
2022-12-28T19:44:22.817Z,100765.97
2022-12-28T19:49:33.629Z,100777.44
2022-12-28T19:54:44.647Z,100787.16
2022-12-28T19:59:55.022Z,100795.97
2022-12-28T20:05:05.617Z,100798.53
2022-12-28T20:10:16.726Z,100815.06
2022-12-28T20:15:27.531Z,100819.63
2022-12-28T20:21:09.260Z,100798.97
2022-12-28T20:26:14.878Z,100809.56
2022-12-28T20:31:25.669Z,100795.56
2022-12-28T20:36:36.257Z,100800.28
2022-12-28T20:42:03.403Z,100811.50
2022-12-28T20:47:13.781Z,100835.66
2022-12-28T20:52:25.676Z,100831.91
2022-12-28T20:57:36.617Z,100824.66
2022-12-28T21:02:47.393Z,100832.16
2022-12-28T21:08:00.211Z,100827.47
2022-12-28T21:13:11.194Z,100834.59
2022-12-28T21:18:22.583Z,100855.41
2022-12-28T21:23:34.780Z,100854.94
2022-12-28T21:28:45.956Z,100864.09
2022-12-28T21:34:00.652Z,100868.06
2022-12-28T21:39:11.305Z,100867.53
2022-12-28T21:44:27.391Z,100858.56
2022-12-28T21:49:36.572Z,100864.25
2022-12-28T21:54:47.039Z,100873.69
2022-12-28T21:59:57.668Z,100872.34
2022-12-28T22:05:25.869Z,100885.13
2022-12-28T22:10:56.227Z,100871.72
2022-12-28T22:16:13.756Z,100873.66
2022-12-28T22:21:25.012Z,100887.03
2022-12-28T22:26:35.607Z,100891.59
2022-12-28T22:31:46.419Z,100887.34
2022-12-28T22:36:56.636Z,100903.38
2022-12-28T22:42:07.788Z,100908.94
2022-12-28T22:47:19.548Z,100908.22
2022-12-28T22:52:31.558Z,100922.63
2022-12-28T22:57:42.407Z,100929.69
2022-12-28T23:02:53.225Z,100944.31
2022-12-28T23:08:03.773Z,100945.84
2022-12-28T23:13:14.365Z,100944.25
2022-12-28T23:18:42.115Z,100959.41
2022-12-28T23:24:09.018Z,100948.22
2022-12-28T23:29:19.380Z,100948.22
2022-12-28T23:34:29.873Z,100948.50
2022-12-28T23:39:39.291Z,100962.56
2022-12-28T23:44:50.328Z,100966.75
2022-12-28T23:50:00.598Z,100968.00
2022-12-28T23:55:11.223Z,100975.28
